sensor_id;sensor_type;location;lat;lon;timestamp;pressure;altitude;pressure_sealevel;temperature;humidity
56721;BME280;53183;47.412;18.884;2023-05-11T00:01:35;99314.41;;;12.38;62.22
56721;BME280;53183;47.412;18.884;2023-05-11T00:04:02;99309.00;;;12.39;62.31
56721;BME280;53183;47.412;18.884;2023-05-11T00:06:29;99309.97;;;12.38;62.25
56721;BME280;53183;47.412;18.884;2023-05-11T00:08:58;99307.41;;;12.37;62.51
56721;BME280;53183;47.412;18.884;2023-05-11T00:11:25;99302.50;;;12.31;62.84
56721;BME280;53183;47.412;18.884;2023-05-11T00:13:52;99305.63;;;12.37;62.85
56721;BME280;53183;47.412;18.884;2023-05-11T00:16:19;99300.06;;;12.28;62.95
56721;BME280;53183;47.412;18.884;2023-05-11T00:18:47;99301.81;;;12.27;63.21
56721;BME280;53183;47.412;18.884;2023-05-11T00:21:15;99301.81;;;12.27;63.50
56721;BME280;53183;47.412;18.884;2023-05-11T00:23:42;99304.75;;;12.37;63.05
56721;BME280;53183;47.412;18.884;2023-05-11T00:26:09;99299.44;;;12.37;63.32
56721;BME280;53183;47.412;18.884;2023-05-11T00:28:37;99298.91;;;12.32;63.60
56721;BME280;53183;47.412;18.884;2023-05-11T00:31:04;99304.97;;;12.19;63.98
56721;BME280;53183;47.412;18.884;2023-05-11T00:33:31;99305.28;;;12.15;64.29
56721;BME280;53183;47.412;18.884;2023-05-11T00:35:59;99305.84;;;12.06;64.83
56721;BME280;53183;47.412;18.884;2023-05-11T00:38:26;99294.69;;;12.01;64.80
56721;BME280;53183;47.412;18.884;2023-05-11T00:40:53;99298.28;;;12.00;64.97
56721;BME280;53183;47.412;18.884;2023-05-11T00:43:21;99299.63;;;11.92;65.62
56721;BME280;53183;47.412;18.884;2023-05-11T00:45:48;99291.31;;;11.99;65.45
56721;BME280;53183;47.412;18.884;2023-05-11T00:48:18;99297.34;;;12.01;65.43
56721;BME280;53183;47.412;18.884;2023-05-11T00:50:45;99291.31;;;11.99;65.63
56721;BME280;53183;47.412;18.884;2023-05-11T00:53:13;99291.84;;;12.04;65.51
56721;BME280;53183;47.412;18.884;2023-05-11T00:55:40;99296.03;;;12.08;65.25
56721;BME280;53183;47.412;18.884;2023-05-11T00:58:08;99303.38;;;12.17;65.06
56721;BME280;53183;47.412;18.884;2023-05-11T01:00:35;99291.00;;;12.17;65.06
56721;BME280;53183;47.412;18.884;2023-05-11T01:03:03;99289.97;;;12.06;65.61
56721;BME280;53183;47.412;18.884;2023-05-11T01:05:35;99287.63;;;12.01;65.88
56721;BME280;53183;47.412;18.884;2023-05-11T01:08:05;99288.44;;;12.16;65.45
56721;BME280;53183;47.412;18.884;2023-05-11T01:13:20;99294.75;;;12.13;65.58
56721;BME280;53183;47.412;18.884;2023-05-11T01:15:54;99286.94;;;12.12;65.92
56721;BME280;53183;47.412;18.884;2023-05-11T01:19:08;99289.38;;;12.15;65.74
56721;BME280;53183;47.412;18.884;2023-05-11T01:21:38;99288.44;;;12.16;65.81
56721;BME280;53183;47.412;18.884;2023-05-11T01:32:37;99280.94;;;12.23;64.90
56721;BME280;53183;47.412;18.884;2023-05-11T01:35:17;99287.00;;;12.25;64.65
56721;BME280;53183;47.412;18.884;2023-05-11T01:37:56;99283.50;;;12.24;64.66
56721;BME280;53183;47.412;18.884;2023-05-11T01:40:30;99281.97;;;12.20;65.15
56721;BME280;53183;47.412;18.884;2023-05-11T01:43:12;99281.69;;;12.25;64.71
56721;BME280;53183;47.412;18.884;2023-05-11T01:45:46;99277.13;;;12.27;64.66
56721;BME280;53183;47.412;18.884;2023-05-11T01:48:21;99274.09;;;12.33;64.00
56721;BME280;53183;47.412;18.884;2023-05-11T01:50:50;99281.50;;;12.28;64.34
56721;BME280;53183;47.412;18.884;2023-05-11T01:53:18;99276.47;;;12.37;63.79
56721;BME280;53183;47.412;18.884;2023-05-11T01:55:48;99274.16;;;12.46;63.67
56721;BME280;53183;47.412;18.884;2023-05-11T01:58:18;99278.31;;;12.50;63.24
56721;BME280;53183;47.412;18.884;2023-05-11T02:00:47;99281.53;;;12.55;63.26
56721;BME280;53183;47.412;18.884;2023-05-11T02:03:17;99277.81;;;12.57;63.35
56721;BME280;53183;47.412;18.884;2023-05-11T02:05:48;99275.56;;;12.51;63.81
56721;BME280;53183;47.412;18.884;2023-05-11T02:08:18;99270.34;;;12.50;63.56
56721;BME280;53183;47.412;18.884;2023-05-11T02:10:47;99272.16;;;12.49;63.86
56721;BME280;53183;47.412;18.884;2023-05-11T02:13:17;99272.72;;;12.54;63.82
56721;BME280;53183;47.412;18.884;2023-05-11T02:15:46;99275.16;;;12.57;63.44
56721;BME280;53183;47.412;18.884;2023-05-11T02:18:17;99271.66;;;12.57;63.61
56721;BME280;53183;47.412;18.884;2023-05-11T02:20:47;99267.81;;;12.48;63.83
56721;BME280;53183;47.412;18.884;2023-05-11T02:23:15;99268.09;;;12.43;64.22
56721;BME280;53183;47.412;18.884;2023-05-11T02:25:43;99262.47;;;12.35;64.31
56721;BME280;53183;47.412;18.884;2023-05-11T02:28:11;99264.72;;;12.41;64.22
56721;BME280;53183;47.412;18.884;2023-05-11T02:30:43;99264.53;;;12.30;64.43
56721;BME280;53183;47.412;18.884;2023-05-11T02:33:24;99265.19;;;12.34;64.34
56721;BME280;53183;47.412;18.884;2023-05-11T02:35:55;99255.41;;;12.22;64.87
56721;BME280;53183;47.412;18.884;2023-05-11T02:38:30;99263.81;;;12.14;65.02
56721;BME280;53183;47.412;18.884;2023-05-11T02:41:03;99256.75;;;12.14;64.48
56721;BME280;53183;47.412;18.884;2023-05-11T02:43:35;99256.88;;;11.99;65.37
56721;BME280;53183;47.412;18.884;2023-05-11T02:46:10;99249.84;;;11.83;65.95
56721;BME280;53183;47.412;18.884;2023-05-11T02:48:46;99250.91;;;11.66;66.59
56721;BME280;53183;47.412;18.884;2023-05-11T02:51:16;99247.22;;;11.55;66.97
56721;BME280;53183;47.412;18.884;2023-05-11T02:53:46;99247.88;;;11.44;67.46
56721;BME280;53183;47.412;18.884;2023-05-11T02:56:15;99242.69;;;11.42;67.66
56721;BME280;53183;47.412;18.884;2023-05-11T02:58:43;99248.25;;;11.38;67.71
56721;BME280;53183;47.412;18.884;2023-05-11T03:01:11;99245.50;;;11.25;68.47
56721;BME280;53183;47.412;18.884;2023-05-11T03:03:39;99244.28;;;11.16;68.68
56721;BME280;53183;47.412;18.884;2023-05-11T03:06:07;99241.63;;;11.16;68.31
56721;BME280;53183;47.412;18.884;2023-05-11T03:08:34;99245.28;;;11.14;68.39
56721;BME280;53183;47.412;18.884;2023-05-11T03:11:03;99242.66;;;11.14;68.56
56721;BME280;53183;47.412;18.884;2023-05-11T03:13:31;99244.56;;;11.26;68.09
56721;BME280;53183;47.412;18.884;2023-05-11T03:15:59;99249.44;;;11.18;68.25
56721;BME280;53183;47.412;18.884;2023-05-11T03:18:29;99255.41;;;11.07;68.72
56721;BME280;53183;47.412;18.884;2023-05-11T03:20:59;99249.91;;;11.10;68.47
56721;BME280;53183;47.412;18.884;2023-05-11T03:23:28;99255.78;;;11.15;68.47
56721;BME280;53183;47.412;18.884;2023-05-11T03:26:00;99250.12;;;11.21;68.14
56721;BME280;53183;47.412;18.884;2023-05-11T03:28:29;99254.09;;;11.28;67.44
56721;BME280;53183;47.412;18.884;2023-05-11T03:30:57;99257.91;;;11.39;66.88
56721;BME280;53183;47.412;18.884;2023-05-11T03:33:25;99254.78;;;11.32;67.03
56721;BME280;53183;47.412;18.884;2023-05-11T03:35:53;99256.94;;;11.25;67.82
56721;BME280;53183;47.412;18.884;2023-05-11T03:38:22;99253.59;;;11.22;68.02
56721;BME280;53183;47.412;18.884;2023-05-11T03:40:53;99253.81;;;11.19;68.14
56721;BME280;53183;47.412;18.884;2023-05-11T03:43:21;99258.16;;;11.20;68.12
56721;BME280;53183;47.412;18.884;2023-05-11T03:45:52;99258.91;;;11.22;67.97
56721;BME280;53183;47.412;18.884;2023-05-11T03:48:20;99260.03;;;11.18;68.18
56721;BME280;53183;47.412;18.884;2023-05-11T03:50:47;99258.34;;;11.17;68.47
56721;BME280;53183;47.412;18.884;2023-05-11T03:53:15;99251.72;;;11.24;67.96
56721;BME280;53183;47.412;18.884;2023-05-11T03:55:42;99251.91;;;11.21;68.22
56721;BME280;53183;47.412;18.884;2023-05-11T03:58:10;99253.72;;;11.35;67.64
56721;BME280;53183;47.412;18.884;2023-05-11T04:00:41;99256.28;;;11.36;67.76
56721;BME280;53183;47.412;18.884;2023-05-11T04:03:08;99264.34;;;11.49;67.25
56721;BME280;53183;47.412;18.884;2023-05-11T04:05:37;99259.16;;;11.62;66.89
56721;BME280;53183;47.412;18.884;2023-05-11T04:08:05;99266.97;;;11.78;66.23
56721;BME280;53183;47.412;18.884;2023-05-11T04:10:33;99261.50;;;11.95;65.36
56721;BME280;53183;47.412;18.884;2023-05-11T04:13:00;99263.00;;;11.99;65.34
56721;BME280;53183;47.412;18.884;2023-05-11T04:15:28;99266.09;;;12.20;64.58
56721;BME280;53183;47.412;18.884;2023-05-11T04:17:56;99267.75;;;12.35;63.99
56721;BME280;53183;47.412;18.884;2023-05-11T04:20:23;99272.34;;;12.46;63.42
56721;BME280;53183;47.412;18.884;2023-05-11T04:22:50;99272.28;;;12.48;63.41
56721;BME280;53183;47.412;18.884;2023-05-11T04:25:17;99270.19;;;12.65;62.49
56721;BME280;53183;47.412;18.884;2023-05-11T04:27:44;99278.16;;;12.65;62.48
56721;BME280;53183;47.412;18.884;2023-05-11T04:30:12;99274.16;;;12.73;62.21
56721;BME280;53183;47.412;18.884;2023-05-11T04:32:39;99277.03;;;12.82;61.60
56721;BME280;53183;47.412;18.884;2023-05-11T04:35:08;99273.03;;;12.89;61.46
56721;BME280;53183;47.412;18.884;2023-05-11T04:37:36;99278.13;;;12.93;61.49
56721;BME280;53183;47.412;18.884;2023-05-11T04:40:05;99278.97;;;12.93;61.46
56721;BME280;53183;47.412;18.884;2023-05-11T04:42:34;99275.63;;;13.04;60.98
56721;BME280;53183;47.412;18.884;2023-05-11T04:45:02;99286.31;;;13.02;61.00
56721;BME280;53183;47.412;18.884;2023-05-11T04:47:30;99282.09;;;13.00;61.39
56721;BME280;53183;47.412;18.884;2023-05-11T04:49:57;99286.00;;;12.94;61.47
56721;BME280;53183;47.412;18.884;2023-05-11T04:52:25;99295.34;;;13.00;61.15
56721;BME280;53183;47.412;18.884;2023-05-11T04:54:52;99290.84;;;12.87;61.66
56721;BME280;53183;47.412;18.884;2023-05-11T04:57:19;99293.06;;;12.81;62.37
56721;BME280;53183;47.412;18.884;2023-05-11T04:59:47;99289.38;;;12.96;62.11
56721;BME280;53183;47.412;18.884;2023-05-11T05:02:14;99290.78;;;13.02;61.75
56721;BME280;53183;47.412;18.884;2023-05-11T05:04:42;99287.06;;;13.04;62.65
56721;BME280;53183;47.412;18.884;2023-05-11T05:07:09;99295.34;;;13.12;61.75
56721;BME280;53183;47.412;18.884;2023-05-11T05:09:36;99296.00;;;13.16;61.95
56721;BME280;53183;47.412;18.884;2023-05-11T05:12:03;99290.28;;;13.22;61.59
56721;BME280;53183;47.412;18.884;2023-05-11T05:14:31;99292.00;;;13.23;60.62
56721;BME280;53183;47.412;18.884;2023-05-11T05:16:58;99298.19;;;13.36;60.78
56721;BME280;53183;47.412;18.884;2023-05-11T05:19:27;99298.84;;;13.53;60.84
56721;BME280;53183;47.412;18.884;2023-05-11T05:21:54;99290.34;;;13.73;59.75
56721;BME280;53183;47.412;18.884;2023-05-11T05:24:22;99292.75;;;14.02;58.83
56721;BME280;53183;47.412;18.884;2023-05-11T05:26:49;99301.94;;;14.35;57.34
56721;BME280;53183;47.412;18.884;2023-05-11T05:29:16;99297.63;;;14.45;56.34
56721;BME280;53183;47.412;18.884;2023-05-11T05:31:44;99299.59;;;14.67;55.03
56721;BME280;53183;47.412;18.884;2023-05-11T05:34:11;99299.81;;;14.88;55.37
56721;BME280;53183;47.412;18.884;2023-05-11T05:36:42;99306.41;;;15.53;52.21
56721;BME280;53183;47.412;18.884;2023-05-11T05:39:10;99305.06;;;15.93;50.33
56721;BME280;53183;47.412;18.884;2023-05-11T05:41:38;99310.50;;;15.92;51.07
56721;BME280;53183;47.412;18.884;2023-05-11T05:44:08;99309.50;;;16.15;50.03
56721;BME280;53183;47.412;18.884;2023-05-11T05:46:36;99310.34;;;16.38;48.51
56721;BME280;53183;47.412;18.884;2023-05-11T05:49:04;99304.75;;;16.53;47.97
56721;BME280;53183;47.412;18.884;2023-05-11T05:51:32;99314.94;;;16.91;47.44
56721;BME280;53183;47.412;18.884;2023-05-11T05:53:59;99299.06;;;17.43;46.20
56721;BME280;53183;47.412;18.884;2023-05-11T05:56:26;99302.91;;;18.01;45.03
56721;BME280;53183;47.412;18.884;2023-05-11T05:58:53;99301.59;;;18.17;43.79
56721;BME280;53183;47.412;18.884;2023-05-11T06:01:22;99296.69;;;17.91;44.63
56721;BME280;53183;47.412;18.884;2023-05-11T06:03:49;99304.88;;;17.99;44.74
56721;BME280;53183;47.412;18.884;2023-05-11T06:06:18;99302.81;;;18.13;45.07
56721;BME280;53183;47.412;18.884;2023-05-11T06:08:46;99306.06;;;18.16;44.97
56721;BME280;53183;47.412;18.884;2023-05-11T06:11:14;99298.56;;;18.41;42.99
56721;BME280;53183;47.412;18.884;2023-05-11T06:13:41;99305.56;;;18.32;43.44
56721;BME280;53183;47.412;18.884;2023-05-11T06:16:09;99305.94;;;18.18;44.06
56721;BME280;53183;47.412;18.884;2023-05-11T06:18:37;99310.94;;;18.42;43.99
56721;BME280;53183;47.412;18.884;2023-05-11T06:21:04;99306.03;;;18.47;43.16
56721;BME280;53183;47.412;18.884;2023-05-11T06:23:32;99303.94;;;18.60;43.48
56721;BME280;53183;47.412;18.884;2023-05-11T06:25:59;99311.12;;;18.60;43.30
56721;BME280;53183;47.412;18.884;2023-05-11T06:28:27;99307.59;;;18.69;43.15
56721;BME280;53183;47.412;18.884;2023-05-11T06:30:56;99310.41;;;18.58;42.66
56721;BME280;53183;47.412;18.884;2023-05-11T06:33:26;99313.94;;;18.58;43.23
56721;BME280;53183;47.412;18.884;2023-05-11T06:35:54;99307.34;;;18.22;43.26
56721;BME280;53183;47.412;18.884;2023-05-11T06:38:21;99303.34;;;17.97;43.28
56721;BME280;53183;47.412;18.884;2023-05-11T06:40:52;99309.38;;;17.99;44.10
56721;BME280;53183;47.412;18.884;2023-05-11T06:43:19;99307.87;;;18.46;43.04
56721;BME280;53183;47.412;18.884;2023-05-11T06:45:47;99308.81;;;18.76;41.81
56721;BME280;53183;47.412;18.884;2023-05-11T06:48:16;99306.53;;;18.81;41.93
56721;BME280;53183;47.412;18.884;2023-05-11T06:50:43;99294.72;;;19.03;41.81
56721;BME280;53183;47.412;18.884;2023-05-11T06:53:12;99296.66;;;19.30;42.04
56721;BME280;53183;47.412;18.884;2023-05-11T06:55:39;99305.38;;;19.52;40.43
56721;BME280;53183;47.412;18.884;2023-05-11T06:58:07;99305.47;;;19.79;40.43
56721;BME280;53183;47.412;18.884;2023-05-11T07:00:34;99305.22;;;19.73;40.14
56721;BME280;53183;47.412;18.884;2023-05-11T07:03:01;99300.09;;;19.89;40.42
56721;BME280;53183;47.412;18.884;2023-05-11T07:05:29;99293.22;;;19.77;40.56
56721;BME280;53183;47.412;18.884;2023-05-11T07:07:56;99297.22;;;19.43;40.80
56721;BME280;53183;47.412;18.884;2023-05-11T07:10:23;99290.16;;;19.42;41.09
56721;BME280;53183;47.412;18.884;2023-05-11T07:12:52;99291.75;;;19.92;39.94
56721;BME280;53183;47.412;18.884;2023-05-11T07:15:19;99291.56;;;20.03;39.22
56721;BME280;53183;47.412;18.884;2023-05-11T07:17:46;99292.41;;;20.31;39.01
56721;BME280;53183;47.412;18.884;2023-05-11T07:20:14;99287.22;;;21.11;38.49
56721;BME280;53183;47.412;18.884;2023-05-11T07:22:41;99289.50;;;21.24;37.65
56721;BME280;53183;47.412;18.884;2023-05-11T07:25:09;99298.63;;;21.31;37.39
56721;BME280;53183;47.412;18.884;2023-05-11T07:27:36;99290.50;;;22.19;35.28
56721;BME280;53183;47.412;18.884;2023-05-11T07:30:04;99290.19;;;22.81;34.33
56721;BME280;53183;47.412;18.884;2023-05-11T07:32:31;99287.69;;;23.61;33.70
56721;BME280;53183;47.412;18.884;2023-05-11T07:34:59;99293.13;;;24.17;32.40
56721;BME280;53183;47.412;18.884;2023-05-11T07:37:26;99283.87;;;24.59;31.14
56721;BME280;53183;47.412;18.884;2023-05-11T07:39:53;99288.25;;;24.60;31.38
56721;BME280;53183;47.412;18.884;2023-05-11T07:42:20;99288.44;;;24.58;31.54
56721;BME280;53183;47.412;18.884;2023-05-11T07:44:47;99282.28;;;25.18;30.37
56721;BME280;53183;47.412;18.884;2023-05-11T07:47:15;99287.72;;;25.10;30.48
56721;BME280;53183;47.412;18.884;2023-05-11T07:49:44;99271.69;;;24.23;30.88
56721;BME280;53183;47.412;18.884;2023-05-11T07:52:13;99286.03;;;24.63;30.86
56721;BME280;53183;47.412;18.884;2023-05-11T07:54:41;99283.41;;;25.62;30.02
56721;BME280;53183;47.412;18.884;2023-05-11T07:57:08;99288.59;;;25.11;29.47
56721;BME280;53183;47.412;18.884;2023-05-11T07:59:39;99288.88;;;24.93;29.97
56721;BME280;53183;47.412;18.884;2023-05-11T08:02:07;99285.75;;;25.27;29.53
56721;BME280;53183;47.412;18.884;2023-05-11T08:04:38;99281.41;;;26.23;28.67
56721;BME280;53183;47.412;18.884;2023-05-11T08:07:06;99278.34;;;25.82;28.83
56721;BME280;53183;47.412;18.884;2023-05-11T08:09:34;99288.47;;;24.81;29.41
56721;BME280;53183;47.412;18.884;2023-05-11T08:12:02;99281.78;;;24.69;30.59
56721;BME280;53183;47.412;18.884;2023-05-11T08:14:29;99284.06;;;24.01;31.02
56721;BME280;53183;47.412;18.884;2023-05-11T08:16:56;99283.09;;;24.33;30.72
56721;BME280;53183;47.412;18.884;2023-05-11T08:19:24;99273.97;;;24.34;30.47
56721;BME280;53183;47.412;18.884;2023-05-11T08:21:51;99274.03;;;24.66;30.62
56721;BME280;53183;47.412;18.884;2023-05-11T08:24:18;99271.88;;;25.30;30.14
56721;BME280;53183;47.412;18.884;2023-05-11T08:26:46;99273.19;;;24.65;30.65
56721;BME280;53183;47.412;18.884;2023-05-11T08:29:13;99271.47;;;24.33;31.32
56721;BME280;53183;47.412;18.884;2023-05-11T08:31:40;99265.97;;;23.22;32.40
56721;BME280;53183;47.412;18.884;2023-05-11T08:34:07;99266.59;;;22.83;33.51
56721;BME280;53183;47.412;18.884;2023-05-11T08:36:45;99261.78;;;22.94;33.70
56721;BME280;53183;47.412;18.884;2023-05-11T08:39:13;99264.28;;;22.96;33.76
56721;BME280;53183;47.412;18.884;2023-05-11T08:41:40;99259.75;;;23.05;32.82
56721;BME280;53183;47.412;18.884;2023-05-11T08:44:08;99257.84;;;22.89;32.83
56721;BME280;53183;47.412;18.884;2023-05-11T08:46:39;99253.50;;;23.12;32.54
56721;BME280;53183;47.412;18.884;2023-05-11T08:49:07;99252.63;;;23.61;31.75
56721;BME280;53183;47.412;18.884;2023-05-11T08:51:34;99243.38;;;24.11;31.76
56721;BME280;53183;47.412;18.884;2023-05-11T08:54:02;99254.41;;;23.93;31.12
56721;BME280;53183;47.412;18.884;2023-05-11T08:56:30;99245.53;;;23.68;31.76
56721;BME280;53183;47.412;18.884;2023-05-11T08:58:58;99247.28;;;23.04;32.41
56721;BME280;53183;47.412;18.884;2023-05-11T09:01:27;99236.84;;;23.01;32.58
56721;BME280;53183;47.412;18.884;2023-05-11T09:03:55;99230.72;;;23.48;32.19
56721;BME280;53183;47.412;18.884;2023-05-11T09:06:24;99234.41;;;23.71;31.35
56721;BME280;53183;47.412;18.884;2023-05-11T09:08:53;99238.44;;;24.23;30.89
56721;BME280;53183;47.412;18.884;2023-05-11T09:11:20;99233.53;;;23.87;30.09
56721;BME280;53183;47.412;18.884;2023-05-11T09:13:48;99230.69;;;24.20;30.57
56721;BME280;53183;47.412;18.884;2023-05-11T09:16:16;99234.84;;;24.30;31.03
56721;BME280;53183;47.412;18.884;2023-05-11T09:19:03;99224.69;;;24.41;30.78
56721;BME280;53183;47.412;18.884;2023-05-11T09:21:31;99227.03;;;24.04;30.77
56721;BME280;53183;47.412;18.884;2023-05-11T09:24:01;99234.00;;;24.30;30.00
56721;BME280;53183;47.412;18.884;2023-05-11T09:26:28;99226.00;;;24.45;29.40
56721;BME280;53183;47.412;18.884;2023-05-11T09:28:59;99227.53;;;24.08;29.94
56721;BME280;53183;47.412;18.884;2023-05-11T09:31:40;99218.25;;;24.10;30.08
56721;BME280;53183;47.412;18.884;2023-05-11T09:34:19;99215.81;;;24.24;29.97
56721;BME280;53183;47.412;18.884;2023-05-11T09:36:49;99209.63;;;24.38;28.39
56721;BME280;53183;47.412;18.884;2023-05-11T09:39:17;99205.75;;;24.72;28.30
56721;BME280;53183;47.412;18.884;2023-05-11T09:44:40;99220.59;;;24.14;29.57
56721;BME280;53183;47.412;18.884;2023-05-11T09:47:18;99208.31;;;24.42;28.47
56721;BME280;53183;47.412;18.884;2023-05-11T09:49:46;99213.38;;;24.37;28.13
56721;BME280;53183;47.412;18.884;2023-05-11T09:52:17;99206.94;;;24.07;27.01
56721;BME280;53183;47.412;18.884;2023-05-11T09:54:50;99210.03;;;24.35;27.89
56721;BME280;53183;47.412;18.884;2023-05-11T09:57:44;99208.81;;;24.46;27.29
56721;BME280;53183;47.412;18.884;2023-05-11T10:00:18;99198.75;;;24.54;27.98
56721;BME280;53183;47.412;18.884;2023-05-11T10:03:01;99195.19;;;24.85;27.71
56721;BME280;53183;47.412;18.884;2023-05-11T10:05:34;99194.16;;;24.63;27.03
56721;BME280;53183;47.412;18.884;2023-05-11T10:08:03;99192.75;;;24.44;27.37
56721;BME280;53183;47.412;18.884;2023-05-11T10:10:33;99198.06;;;24.29;26.72
56721;BME280;53183;47.412;18.884;2023-05-11T10:13:01;99204.03;;;23.77;26.99
56721;BME280;53183;47.412;18.884;2023-05-11T10:15:31;99192.44;;;23.60;27.33
56721;BME280;53183;47.412;18.884;2023-05-11T10:17:59;99192.06;;;23.72;27.21
56721;BME280;53183;47.412;18.884;2023-05-11T10:20:27;99180.78;;;23.76;27.59
56721;BME280;53183;47.412;18.884;2023-05-11T10:22:54;99185.31;;;24.38;26.42
56721;BME280;53183;47.412;18.884;2023-05-11T10:25:23;99182.56;;;24.54;26.12
56721;BME280;53183;47.412;18.884;2023-05-11T10:27:51;99183.53;;;24.85;26.55
56721;BME280;53183;47.412;18.884;2023-05-11T10:30:19;99176.38;;;25.07;26.46
56721;BME280;53183;47.412;18.884;2023-05-11T10:32:47;99179.56;;;24.49;26.16
56721;BME280;53183;47.412;18.884;2023-05-11T10:35:16;99192.41;;;24.70;26.07
56721;BME280;53183;47.412;18.884;2023-05-11T10:37:44;99181.66;;;25.23;25.49
56721;BME280;53183;47.412;18.884;2023-05-11T10:40:12;99168.63;;;25.03;25.38
56721;BME280;53183;47.412;18.884;2023-05-11T10:51:20;99166.88;;;24.73;26.50
56721;BME280;53183;47.412;18.884;2023-05-11T10:54:03;99171.03;;;24.61;27.28
56721;BME280;53183;47.412;18.884;2023-05-11T11:01:39;99167.03;;;23.47;28.41
56721;BME280;53183;47.412;18.884;2023-05-11T11:04:11;99162.34;;;23.16;28.61
56721;BME280;53183;47.412;18.884;2023-05-11T11:06:41;99155.22;;;23.39;29.06
56721;BME280;53183;47.412;18.884;2023-05-11T11:09:11;99163.03;;;23.18;28.93
56721;BME280;53183;47.412;18.884;2023-05-11T11:11:45;99161.84;;;23.21;28.57
56721;BME280;53183;47.412;18.884;2023-05-11T11:14:14;99156.41;;;23.45;28.80
56721;BME280;53183;47.412;18.884;2023-05-11T11:19:41;99159.16;;;22.55;29.03
56721;BME280;53183;47.412;18.884;2023-05-11T11:25:08;99147.37;;;23.13;28.72
56721;BME280;53183;47.412;18.884;2023-05-11T11:30:19;99142.94;;;23.84;27.20
56721;BME280;53183;47.412;18.884;2023-05-11T11:32:52;99148.53;;;24.14;27.42
56721;BME280;53183;47.412;18.884;2023-05-11T11:38:18;99143.44;;;24.19;27.65
56721;BME280;53183;47.412;18.884;2023-05-11T11:40:47;99147.09;;;24.26;27.20
56721;BME280;53183;47.412;18.884;2023-05-11T11:43:21;99143.97;;;24.69;26.05
56721;BME280;53183;47.412;18.884;2023-05-11T11:46:00;99141.28;;;24.38;26.82
56721;BME280;53183;47.412;18.884;2023-05-11T11:48:35;99143.81;;;24.16;26.35
56721;BME280;53183;47.412;18.884;2023-05-11T11:56:08;99134.00;;;24.84;26.51
56721;BME280;53183;47.412;18.884;2023-05-11T12:01:24;99131.66;;;24.43;26.96
56721;BME280;53183;47.412;18.884;2023-05-11T12:04:08;99132.81;;;24.49;26.89
56721;BME280;53183;47.412;18.884;2023-05-11T12:06:40;99127.28;;;24.80;26.18
56721;BME280;53183;47.412;18.884;2023-05-11T12:09:09;99129.91;;;24.50;25.91
56721;BME280;53183;47.412;18.884;2023-05-11T12:11:36;99139.75;;;23.89;26.89
56721;BME280;53183;47.412;18.884;2023-05-11T12:14:04;99124.25;;;23.83;27.97
56721;BME280;53183;47.412;18.884;2023-05-11T12:16:34;99127.72;;;24.23;27.53
56721;BME280;53183;47.412;18.884;2023-05-11T12:19:02;99131.44;;;23.99;26.76
56721;BME280;53183;47.412;18.884;2023-05-11T12:21:30;99118.84;;;23.83;27.13
56721;BME280;53183;47.412;18.884;2023-05-11T12:24:03;99114.94;;;23.85;26.91
56721;BME280;53183;47.412;18.884;2023-05-11T12:26:31;99117.56;;;23.71;27.23
56721;BME280;53183;47.412;18.884;2023-05-11T12:29:13;99116.87;;;23.69;27.91
56721;BME280;53183;47.412;18.884;2023-05-11T12:31:41;99113.09;;;23.86;27.34
56721;BME280;53183;47.412;18.884;2023-05-11T12:34:16;99100.75;;;23.92;26.66
56721;BME280;53183;47.412;18.884;2023-05-11T12:36:44;99101.75;;;23.59;26.85
56721;BME280;53183;47.412;18.884;2023-05-11T12:39:18;99100.28;;;23.40;27.12
56721;BME280;53183;47.412;18.884;2023-05-11T12:41:47;99098.09;;;23.44;27.29
56721;BME280;53183;47.412;18.884;2023-05-11T12:44:16;99099.34;;;23.64;27.35
56721;BME280;53183;47.412;18.884;2023-05-11T12:46:50;99103.97;;;23.87;27.21
56721;BME280;53183;47.412;18.884;2023-05-11T12:49:19;99093.09;;;24.03;27.45
56721;BME280;53183;47.412;18.884;2023-05-11T12:54:31;99087.69;;;23.72;27.54
56721;BME280;53183;47.412;18.884;2023-05-11T12:57:00;99084.06;;;23.49;27.59
56721;BME280;53183;47.412;18.884;2023-05-11T13:04:37;99078.28;;;23.21;27.56
56721;BME280;53183;47.412;18.884;2023-05-11T13:07:04;99079.13;;;23.13;28.43
56721;BME280;53183;47.412;18.884;2023-05-11T13:09:31;99082.56;;;22.99;27.87
56721;BME280;53183;47.412;18.884;2023-05-11T13:12:26;99074.66;;;22.81;28.02
56721;BME280;53183;47.412;18.884;2023-05-11T13:15:23;99061.56;;;22.45;28.62
56721;BME280;53183;47.412;18.884;2023-05-11T13:17:56;99059.38;;;22.32;29.59
56721;BME280;53183;47.412;18.884;2023-05-11T13:20:34;99062.53;;;22.44;30.08
56721;BME280;53183;47.412;18.884;2023-05-11T13:23:10;99071.63;;;22.76;29.77
56721;BME280;53183;47.412;18.884;2023-05-11T13:28:19;99053.41;;;21.96;30.55
56721;BME280;53183;47.412;18.884;2023-05-11T13:30:48;99059.94;;;21.69;30.55
56721;BME280;53183;47.412;18.884;2023-05-11T13:33:17;99061.63;;;21.94;31.21
56721;BME280;53183;47.412;18.884;2023-05-11T13:35:45;99064.25;;;22.29;30.36
56721;BME280;53183;47.412;18.884;2023-05-11T13:38:12;99052.31;;;22.31;30.24
56721;BME280;53183;47.412;18.884;2023-05-11T13:40:39;99056.63;;;22.08;30.22
56721;BME280;53183;47.412;18.884;2023-05-11T13:43:06;99058.47;;;21.99;30.51
56721;BME280;53183;47.412;18.884;2023-05-11T13:45:33;99048.59;;;22.16;30.10
56721;BME280;53183;47.412;18.884;2023-05-11T13:48:02;99046.22;;;22.45;30.17
56721;BME280;53183;47.412;18.884;2023-05-11T13:50:29;99044.72;;;22.35;29.94
56721;BME280;53183;47.412;18.884;2023-05-11T13:52:58;99048.25;;;22.52;29.98
56721;BME280;53183;47.412;18.884;2023-05-11T13:55:25;99042.38;;;22.48;29.58
56721;BME280;53183;47.412;18.884;2023-05-11T13:57:52;99050.09;;;22.43;29.59
56721;BME280;53183;47.412;18.884;2023-05-11T14:00:19;99049.09;;;22.44;29.84